Time;durP1;ratioP1;P1;durP2;ratioP2;P2;SDS_P1;SDS_P2;PMS_P1;PMS_P2;Temp;Humidity;BMP_temperature;BMP_pressure;BME280_temperature;BME280_humidity;BME280_pressure;Samples;Min_cycle;Max_cycle;Signal;HPM_P1;HPM_P2
2022/09/15 00:02:13;;;;;;;3.35;0.70;;;14.80;99.90;;;;;;5073312;28;20040;-79
2022/09/15 00:04:38;;;;;;;3.20;0.90;;;15.00;99.90;;;;;;5072550;28;20044;-77
2022/09/15 00:07:04;;;;;;;5.72;0.80;;;14.90;99.90;;;;;;5073358;28;20123;-78
2022/09/15 00:09:30;;;;;;;3.83;0.80;;;14.70;99.90;;;;;;5072901;28;20048;-77
2022/09/15 00:11:56;;;;;;;1.40;0.60;;;15.00;99.90;;;;;;5072457;28;20051;-77
2022/09/15 00:14:22;;;;;;;2.65;0.80;;;14.80;99.90;;;;;;5073719;28;20076;-78
2022/09/15 00:16:48;;;;;;;4.50;0.80;;;14.80;99.90;;;;;;5073461;28;20477;-78
2022/09/15 00:19:13;;;;;;;3.67;0.70;;;14.70;99.90;;;;;;5072479;28;20048;-78
2022/09/15 00:21:41;;;;;;;2.58;0.85;;;14.80;99.90;;;;;;5072028;28;20041;-77
2022/09/15 00:24:08;;;;;;;3.40;0.80;;;14.80;99.90;;;;;;5072276;28;20385;-78
2022/09/15 00:26:34;;;;;;;2.45;0.80;;;14.60;99.90;;;;;;5073411;28;20135;-78
2022/09/15 00:29:01;;;;;;;4.63;0.80;;;14.70;99.90;;;;;;5073458;28;20044;-78
2022/09/15 00:31:28;;;;;;;3.28;0.70;;;14.70;99.90;;;;;;5073307;28;20047;-79
2022/09/15 00:33:56;;;;;;;6.20;0.80;;;14.90;99.90;;;;;;5073970;28;20080;-78
2022/09/15 00:36:22;;;;;;;3.50;0.70;;;14.80;99.90;;;;;;5076778;28;20074;-79
2022/09/15 00:38:49;;;;;;;2.42;0.90;;;15.00;99.90;;;;;;5077266;28;20048;-79
2022/09/15 00:41:17;;;;;;;2.47;0.88;;;15.20;99.90;;;;;;5077390;28;20041;-79
2022/09/15 00:43:45;;;;;;;2.50;0.70;;;14.80;99.90;;;;;;5076286;28;20483;-79
2022/09/15 00:46:12;;;;;;;3.35;0.70;;;14.90;99.90;;;;;;5059533;28;20052;-79
2022/09/15 00:48:42;;;;;;;3.75;0.65;;;15.00;99.90;;;;;;5076958;28;20512;-79
2022/09/15 00:51:10;;;;;;;4.18;0.90;;;14.90;99.90;;;;;;5075287;28;20043;-79
2022/09/15 00:53:36;;;;;;;3.45;0.80;;;15.10;99.90;;;;;;5076347;28;20488;-78
2022/09/15 00:56:06;;;;;;;4.32;0.95;;;15.00;99.90;;;;;;5077314;28;20052;-78
2022/09/15 00:58:40;;;;;;;4.00;0.93;;;15.00;99.90;;;;;;5075998;28;20052;-78
2022/09/15 01:01:07;;;;;;;2.03;0.70;;;14.90;99.90;;;;;;5076890;28;20052;-78
2022/09/15 01:03:34;;;;;;;2.90;1.23;;;15.20;99.90;;;;;;5076152;28;20044;-78
2022/09/15 01:06:18;;;;;;;2.80;0.75;;;15.10;99.90;;;;;;5076830;28;20125;-77
2022/09/15 01:09:02;;;;;;;3.08;0.80;;;15.00;99.90;;;;;;5076922;28;20614;-77
2022/09/15 01:11:29;;;;;;;2.47;0.68;;;15.00;99.90;;;;;;5076665;28;20128;-78
2022/09/15 01:13:55;;;;;;;3.55;0.70;;;15.10;99.90;;;;;;5075429;28;20041;-79
2022/09/15 01:16:45;;;;;;;2.40;0.70;;;15.10;99.90;;;;;;5076905;28;20388;-79
2022/09/15 01:19:28;;;;;;;4.55;0.80;;;15.50;99.90;;;;;;5075476;28;20052;-79
2022/09/15 01:22:13;;;;;;;2.75;1.00;;;15.00;99.90;;;;;;5075051;28;20523;-79
2022/09/15 01:24:41;;;;;;;2.38;0.70;;;15.00;99.90;;;;;;5075476;28;20048;-79
2022/09/15 01:27:45;;;;;;;4.25;0.80;;;15.10;99.90;;;;;;5075419;28;20040;-79
2022/09/15 01:30:16;;;;;;;3.28;0.73;;;15.00;99.90;;;;;;5075431;28;20136;-79
2022/09/15 01:33:03;;;;;;;4.07;0.65;;;15.10;99.90;;;;;;5075129;28;20070;-78
2022/09/15 01:35:35;;;;;;;2.80;0.80;;;15.00;99.90;;;;;;5075125;28;20503;-78
2022/09/15 01:38:24;;;;;;;3.50;0.80;;;15.20;99.90;;;;;;5076175;28;20052;-79
2022/09/15 01:41:04;;;;;;;5.50;0.68;;;14.90;99.90;;;;;;5075299;28;20125;-79
2022/09/15 01:43:32;;;;;;;2.38;0.80;;;15.00;99.90;;;;;;5075267;28;20041;-79
2022/09/15 01:46:00;;;;;;;1.42;0.80;;;14.90;99.90;;;;;;5075411;28;20040;-79
2022/09/15 01:48:28;;;;;;;3.85;0.82;;;15.10;99.90;;;;;;5076012;28;20052;-78
2022/09/15 01:51:00;;;;;;;3.03;0.90;;;15.00;99.90;;;;;;5074407;28;20175;-80
2022/09/15 01:53:27;;;;;;;3.22;0.98;;;14.90;99.90;;;;;;5075118;28;20045;-78
2022/09/15 01:56:04;;;;;;;2.70;0.73;;;15.00;99.90;;;;;;5075149;28;20044;-79
2022/09/15 01:58:31;;;;;;;2.67;0.70;;;14.80;99.90;;;;;;5075992;28;20051;-79
2022/09/15 02:01:11;;;;;;;1.60;0.68;;;14.90;99.90;;;;;;5074692;28;20091;-79
2022/09/15 02:03:47;;;;;;;4.65;0.65;;;15.00;99.90;;;;;;5076584;28;20448;-79
2022/09/15 02:06:43;;;;;;;5.63;0.70;;;14.90;99.90;;;;;;5075463;28;20059;-79
2022/09/15 02:09:20;;;;;;;2.80;0.68;;;15.00;99.90;;;;;;5074034;28;20127;-79
2022/09/15 02:11:59;;;;;;;3.67;0.70;;;14.90;99.90;;;;;;5074622;28;20051;-79
2022/09/15 02:15:09;;;;;;;3.78;0.98;;;14.90;99.90;;;;;;5075225;28;20412;-79
2022/09/15 02:17:41;;;;;;;2.92;0.60;;;14.90;99.90;;;;;;5066016;28;20068;-79
2022/09/15 02:20:19;;;;;;;1.80;0.50;;;15.00;99.90;;;;;;5075690;28;20044;-79
2022/09/15 02:22:54;;;;;;;3.47;0.73;;;15.10;99.90;;;;;;5074302;28;20125;-80
2022/09/15 02:25:33;;;;;;;4.05;0.88;;;14.80;99.90;;;;;;5091613;28;20067;-79
2022/09/15 02:28:04;;;;;;;3.40;0.60;;;14.90;99.90;;;;;;5075437;28;20048;-79
2022/09/15 02:30:32;;;;;;;3.28;0.63;;;14.90;99.90;;;;;;5075337;28;20048;-78
2022/09/15 02:33:01;;;;;;;3.80;0.68;;;14.90;99.90;;;;;;5073965;28;20048;-78
2022/09/15 02:35:31;;;;;;;2.20;0.60;;;14.90;99.90;;;;;;5073919;28;20123;-76
2022/09/15 02:37:58;;;;;;;6.20;0.63;;;15.10;99.90;;;;;;5075051;28;20055;-79
2022/09/15 02:40:24;;;;;;;4.53;0.70;;;14.80;99.90;;;;;;5074084;28;20044;-80
2022/09/15 02:43:02;;;;;;;5.57;0.52;;;14.80;99.90;;;;;;5074073;28;20491;-78
2022/09/15 02:45:32;;;;;;;5.40;0.50;;;14.90;99.90;;;;;;5075562;28;20048;-77
2022/09/15 02:47:58;;;;;;;3.15;0.40;;;15.00;99.90;;;;;;5057276;28;20473;-79
2022/09/15 02:50:27;;;;;;;3.50;0.50;;;14.70;99.90;;;;;;5073509;28;20042;-82
2022/09/15 02:52:54;;;;;;;5.72;0.50;;;14.70;99.90;;;;;;5073549;28;20050;-78
2022/09/15 02:55:20;;;;;;;5.45;0.85;;;14.60;99.90;;;;;;5057334;28;20064;-78
2022/09/15 02:57:46;;;;;;;5.70;0.80;;;14.60;99.90;;;;;;5072671;28;20044;-79
2022/09/15 03:00:13;;;;;;;5.93;0.60;;;14.70;99.90;;;;;;5073701;28;20055;-79
2022/09/15 03:02:40;;;;;;;3.47;0.57;;;14.60;99.90;;;;;;5073334;28;20101;-80
2022/09/15 03:05:08;;;;;;;2.88;0.50;;;14.50;99.90;;;;;;5073616;28;20036;-79
2022/09/15 03:07:36;;;;;;;3.70;0.50;;;14.60;99.90;;;;;;5090674;28;20139;-80
2022/09/15 03:10:01;;;;;;;5.13;0.40;;;14.50;99.90;;;;;;5074669;28;20048;-79
2022/09/15 03:12:27;;;;;;;3.22;0.52;;;14.50;99.90;;;;;;5072968;28;20408;-80
2022/09/15 03:14:53;;;;;;;3.85;0.82;;;14.50;99.90;;;;;;5073207;28;20087;-80
2022/09/15 03:17:18;;;;;;;3.53;0.40;;;14.50;99.90;;;;;;5073450;28;20044;-79
2022/09/15 03:19:44;;;;;;;3.25;0.50;;;14.40;99.90;;;;;;5073079;28;20044;-79
2022/09/15 03:22:10;;;;;;;4.75;0.60;;;14.60;99.90;;;;;;5073741;28;20044;-79
2022/09/15 03:24:40;;;;;;;2.22;0.52;;;14.70;99.90;;;;;;5074122;28;20054;-79
2022/09/15 03:27:06;;;;;;;3.13;0.50;;;14.40;99.90;;;;;;5073177;28;20044;-80
2022/09/15 03:29:32;;;;;;;3.42;0.40;;;14.50;99.90;;;;;;5073162;28;20044;-80
2022/09/15 03:31:57;;;;;;;0.90;0.40;;;14.40;99.90;;;;;;5074498;28;20088;-80
2022/09/15 03:34:23;;;;;;;4.82;0.50;;;14.40;99.90;;;;;;5074024;28;20127;-80
2022/09/15 03:36:49;;;;;;;1.98;0.75;;;14.60;99.90;;;;;;5074046;28;20044;-80
2022/09/15 03:39:14;;;;;;;4.13;0.30;;;14.80;99.90;;;;;;5074040;28;20504;-80
2022/09/15 03:41:40;;;;;;;1.00;0.40;;;14.50;99.90;;;;;;5072932;28;20088;-80
2022/09/15 03:44:06;;;;;;;4.65;0.60;;;14.90;99.90;;;;;;5073876;28;20127;-80
2022/09/15 03:46:32;;;;;;;1.45;0.30;;;14.50;99.90;;;;;;5073872;28;20094;-80
2022/09/15 03:48:57;;;;;;;2.65;0.35;;;14.50;99.90;;;;;;5056202;28;20037;-79
2022/09/15 03:51:24;;;;;;;3.25;0.40;;;14.40;99.90;;;;;;5071922;28;20041;-80
2022/09/15 03:53:49;;;;;;;3.15;0.50;;;14.60;99.90;;;;;;5072552;28;20501;-80
2022/09/15 03:56:30;;;;;;;3.08;0.40;;;14.40;99.90;;;;;;5056096;28;20063;-80
2022/09/15 03:58:56;;;;;;;3.15;0.40;;;14.90;99.90;;;;;;5074623;28;20067;-81
2022/09/15 04:01:22;;;;;;;2.42;0.43;;;14.60;99.90;;;;;;5073708;28;20047;-80
2022/09/15 04:03:49;;;;;;;2.78;0.65;;;14.50;99.90;;;;;;5072506;28;20041;-81
2022/09/15 04:06:15;;;;;;;3.75;0.40;;;14.60;99.90;;;;;;5073731;28;20056;-80
2022/09/15 04:08:41;;;;;;;1.52;0.30;;;14.50;99.90;;;;;;5072059;28;20045;-80
2022/09/15 04:11:09;;;;;;;3.72;0.40;;;14.50;99.90;;;;;;5073591;28;20056;-80
2022/09/15 04:13:36;;;;;;;2.80;0.30;;;14.50;99.90;;;;;;5073242;28;20484;-79
2022/09/15 04:16:05;;;;;;;2.78;0.50;;;14.50;99.90;;;;;;5072595;28;20052;-79
2022/09/15 04:18:32;;;;;;;4.07;0.50;;;14.60;99.90;;;;;;5055935;28;20083;-80
2022/09/15 04:21:10;;;;;;;5.78;0.70;;;14.70;99.90;;;;;;5072966;28;20053;-80
2022/09/15 04:23:36;;;;;;;2.30;0.50;;;14.50;99.90;;;;;;5073159;28;20508;-79
2022/09/15 04:26:05;;;;;;;3.13;0.70;;;14.40;99.90;;;;;;5073758;28;20051;-78
2022/09/15 04:28:33;;;;;;;2.63;0.68;;;14.30;99.90;;;;;;5073506;28;20101;-79
2022/09/15 04:31:10;;;;;;;3.85;0.40;;;14.30;99.90;;;;;;5073533;28;20114;-78
2022/09/15 04:33:39;;;;;;;6.53;1.00;;;14.20;99.90;;;;;;5072385;28;20576;-79
2022/09/15 04:36:07;;;;;;;4.82;0.60;;;14.20;99.90;;;;;;5073371;28;20041;-79
2022/09/15 04:38:34;;;;;;;2.55;0.60;;;14.10;99.90;;;;;;5073530;28;20053;-79
2022/09/15 04:41:00;;;;;;;5.13;0.60;;;14.40;99.90;;;;;;5073367;28;20122;-79
2022/09/15 04:43:27;;;;;;;6.82;0.50;;;14.20;99.90;;;;;;5073432;28;20472;-80
2022/09/15 04:45:53;;;;;;;3.10;0.43;;;14.20;99.90;;;;;;5073475;28;20048;-80
2022/09/15 04:48:20;;;;;;;1.83;0.50;;;14.10;99.90;;;;;;5072528;28;20055;-80
2022/09/15 04:50:45;;;;;;;3.35;0.60;;;14.30;99.90;;;;;;5071523;28;20052;-80
2022/09/15 04:53:11;;;;;;;3.85;0.75;;;14.10;99.90;;;;;;5089383;28;20131;-79
2022/09/15 04:55:37;;;;;;;4.57;0.68;;;14.10;99.90;;;;;;5055779;28;20084;-79
2022/09/15 04:58:03;;;;;;;3.88;0.70;;;14.10;99.90;;;;;;5072472;28;20453;-80
2022/09/15 05:00:30;;;;;;;3.45;0.57;;;14.10;99.90;;;;;;5073289;28;20052;-80
2022/09/15 05:02:57;;;;;;;5.20;0.70;;;14.10;99.90;;;;;;5072105;28;20049;-80
2022/09/15 05:05:24;;;;;;;4.20;0.60;;;14.10;99.90;;;;;;5072168;28;20174;-80
2022/09/15 05:07:50;;;;;;;4.07;0.50;;;14.20;99.90;;;;;;5071815;28;20099;-80
2022/09/15 05:10:16;;;;;;;3.53;0.65;;;14.10;99.90;;;;;;5071946;28;20468;-80
2022/09/15 05:12:42;;;;;;;2.63;0.50;;;14.10;99.90;;;;;;5073134;28;20044;-80
2022/09/15 05:15:08;;;;;;;2.17;0.52;;;13.90;99.90;;;;;;5055426;28;20036;-79
2022/09/15 05:17:33;;;;;;;4.35;1.52;;;14.00;99.90;;;;;;5071842;28;20490;-80
2022/09/15 05:20:00;;;;;;;2.80;0.50;;;14.10;99.90;;;;;;5071894;28;20089;-79
2022/09/15 05:22:27;;;;;;;5.80;0.60;;;14.00;99.90;;;;;;5075744;28;20052;-79
2022/09/15 05:24:53;;;;;;;4.18;0.85;;;14.10;99.90;;;;;;5075316;28;20048;-79
2022/09/15 05:27:19;;;;;;;3.47;0.43;;;14.10;99.90;;;;;;5076477;28;20396;-79
2022/09/15 05:29:45;;;;;;;4.10;0.65;;;14.10;99.90;;;;;;5075422;28;20040;-80
2022/09/15 05:32:10;;;;;;;3.60;0.50;;;14.40;99.90;;;;;;5075171;28;20036;-79
2022/09/15 05:34:36;;;;;;;3.30;0.50;;;14.10;99.90;;;;;;5076654;28;20420;-79
2022/09/15 05:37:02;;;;;;;4.07;0.50;;;14.00;99.90;;;;;;5076492;28;20048;-79
2022/09/15 05:39:28;;;;;;;2.33;0.57;;;14.30;99.90;;;;;;5076421;28;20048;-80
2022/09/15 05:41:54;;;;;;;4.32;0.40;;;14.10;99.90;;;;;;5075280;28;20545;-80
2022/09/15 05:44:22;;;;;;;4.07;0.60;;;14.20;99.90;;;;;;5075145;28;20048;-80
2022/09/15 05:46:48;;;;;;;2.28;0.50;;;14.30;99.90;;;;;;5076054;28;20044;-79
2022/09/15 05:49:14;;;;;;;4.28;0.70;;;14.20;99.90;;;;;;5074864;28;20182;-80
2022/09/15 05:51:40;;;;;;;3.67;0.60;;;14.20;99.90;;;;;;5075426;28;20151;-79
2022/09/15 05:54:06;;;;;;;3.80;0.50;;;14.20;99.90;;;;;;5074763;28;20044;-80
2022/09/15 05:56:32;;;;;;;3.97;0.50;;;14.30;99.90;;;;;;5074924;28;20046;-80
2022/09/15 05:58:58;;;;;;;3.35;0.65;;;14.20;99.90;;;;;;5075641;28;20135;-80
2022/09/15 06:01:28;;;;;;;4.00;0.60;;;14.40;99.90;;;;;;5091776;28;20084;-80
2022/09/15 06:03:55;;;;;;;9.20;0.70;;;14.20;99.90;;;;;;5074826;28;20071;-80
2022/09/15 06:06:22;;;;;;;4.50;0.60;;;14.10;99.90;;;;;;5074739;28;20048;-80
2022/09/15 06:08:54;;;;;;;3.03;0.50;;;14.10;99.90;;;;;;5075902;28;20048;-79
2022/09/15 06:11:28;;;;;;;1.95;0.60;;;14.20;99.90;;;;;;5075612;28;20051;-79
2022/09/15 06:13:53;;;;;;;3.88;0.40;;;14.10;99.90;;;;;;5075662;28;20052;-80
2022/09/15 06:16:21;;;;;;;3.42;0.60;;;14.30;99.90;;;;;;5058033;28;20048;-81
2022/09/15 06:18:48;;;;;;;5.57;0.70;;;14.30;99.90;;;;;;5074697;28;20045;-80
2022/09/15 06:21:17;;;;;;;3.50;0.45;;;14.10;99.90;;;;;;5073984;28;20374;-80
2022/09/15 06:23:43;;;;;;;3.22;0.50;;;14.00;99.90;;;;;;5075568;28;20040;-81
2022/09/15 06:26:15;;;;;;;3.72;0.50;;;14.10;99.90;;;;;;5075393;28;20377;-80
2022/09/15 06:28:46;;;;;;;4.15;0.50;;;14.20;99.90;;;;;;5075342;28;20074;-80
2022/09/15 06:31:13;;;;;;;3.78;0.40;;;14.10;99.90;;;;;;5075099;28;20040;-80
2022/09/15 06:33:44;;;;;;;4.55;0.70;;;14.30;99.90;;;;;;5074008;28;20048;-80
2022/09/15 06:36:14;;;;;;;2.38;0.50;;;14.20;99.90;;;;;;5075132;28;20058;-82
2022/09/15 06:38:41;;;;;;;2.95;0.47;;;14.20;99.90;;;;;;5075496;28;20445;-80
2022/09/15 06:41:08;;;;;;;4.55;0.50;;;14.30;99.90;;;;;;5057580;28;20044;-81
2022/09/15 06:43:33;;;;;;;4.72;0.60;;;14.50;99.90;;;;;;5074222;28;20481;-79
2022/09/15 06:46:27;;;;;;;4.60;0.57;;;14.40;99.90;;;;;;5057602;28;20048;-81
2022/09/15 06:48:53;;;;;;;2.90;0.82;;;14.60;99.90;;;;;;5072444;28;20056;-80
2022/09/15 06:51:21;;;;;;;3.75;0.60;;;14.50;99.90;;;;;;5074196;28;20044;-80
2022/09/15 06:53:48;;;;;;;5.43;0.80;;;14.60;99.90;;;;;;5073588;28;20106;-80
2022/09/15 06:56:16;;;;;;;2.88;0.68;;;14.70;99.90;;;;;;5074051;28;20045;-79
2022/09/15 06:58:43;;;;;;;3.63;0.80;;;14.60;99.90;;;;;;5073701;28;20053;-81
2022/09/15 07:01:17;;;;;;;4.03;0.50;;;14.80;99.90;;;;;;5073546;28;20048;-80
2022/09/15 07:03:43;;;;;;;3.30;0.50;;;14.90;99.90;;;;;;5056963;28;20105;-79
2022/09/15 07:06:12;;;;;;;2.58;0.57;;;14.80;99.90;;;;;;5073634;28;20396;-79
2022/09/15 07:08:39;;;;;;;3.47;0.40;;;14.90;99.90;;;;;;5073241;28;20127;-80
2022/09/15 07:11:06;;;;;;;2.97;0.40;;;15.00;99.90;;;;;;5073505;28;20161;-82
2022/09/15 07:13:32;;;;;;;2.53;0.50;;;14.90;99.90;;;;;;5073798;28;20123;-83
2022/09/15 07:16:00;;;;;;;4.65;0.40;;;15.00;99.90;;;;;;5056729;28;20565;-83
2022/09/15 07:18:27;;;;;;;7.65;2.28;;;15.00;99.90;;;;;;5074463;28;20051;-83
2022/09/15 07:20:58;;;;;;;1.60;0.50;;;15.10;99.90;;;;;;5072613;28;20052;-83
2022/09/15 07:23:23;;;;;;;2.25;0.43;;;15.20;99.90;;;;;;5074879;28;20105;-83
2022/09/15 07:25:49;;;;;;;3.47;0.60;;;15.10;99.90;;;;;;5073196;28;20045;-82
2022/09/15 07:28:15;;;;;;;3.40;0.50;;;15.30;99.90;;;;;;5073235;28;20056;-82
2022/09/15 07:30:42;;;;;;;4.20;0.40;;;15.20;99.90;;;;;;5056892;28;20044;-83
2022/09/15 07:33:11;;;;;;;2.75;0.40;;;15.30;99.90;;;;;;5073027;28;20106;-83
2022/09/15 07:35:43;;;;;;;1.65;0.35;;;15.40;99.90;;;;;;5073825;28;20542;-83
2022/09/15 07:38:09;;;;;;;1.88;0.28;;;15.80;99.90;;;;;;5074142;28;20052;-79
2022/09/15 07:40:37;;;;;;;3.92;0.50;;;15.40;99.90;;;;;;5056189;28;20059;-82
2022/09/15 07:43:03;;;;;;;4.55;0.60;;;15.40;99.90;;;;;;5072843;28;20438;-81
2022/09/15 07:45:30;;;;;;;3.63;0.45;;;15.40;99.90;;;;;;5073881;28;20473;-78
2022/09/15 07:47:56;;;;;;;3.55;0.50;;;15.50;99.90;;;;;;5074083;28;20060;-81
2022/09/15 07:50:21;;;;;;;4.78;0.40;;;15.50;99.90;;;;;;5074585;28;20044;-79
2022/09/15 07:52:47;;;;;;;3.55;0.40;;;15.50;99.90;;;;;;5055649;28;20040;-80
2022/09/15 07:55:13;;;;;;;2.97;0.50;;;15.50;99.90;;;;;;5074004;28;20080;-79
2022/09/15 07:57:39;;;;;;;4.70;0.40;;;15.50;99.90;;;;;;5072691;28;20472;-81
2022/09/15 08:00:05;;;;;;;2.60;0.65;;;15.50;99.90;;;;;;5073207;28;20040;-83
2022/09/15 08:02:32;;;;;;;3.50;0.40;;;15.70;99.90;;;;;;5074095;28;20099;-82
2022/09/15 08:04:57;;;;;;;4.35;0.55;;;15.70;99.90;;;;;;5056011;28;20395;-83
2022/09/15 08:07:23;;;;;;;3.83;0.40;;;15.60;99.90;;;;;;5072413;28;20140;-77
2022/09/15 08:09:49;;;;;;;2.78;0.85;;;15.60;99.90;;;;;;5055365;28;20123;-80
2022/09/15 08:12:15;;;;;;;2.88;0.40;;;15.60;99.90;;;;;;5072160;28;20074;-81
2022/09/15 08:14:41;;;;;;;2.00;0.40;;;15.70;99.90;;;;;;5072108;28;20476;-81
2022/09/15 08:17:07;;;;;;;4.03;0.52;;;15.60;99.90;;;;;;5055623;28;20043;-80
2022/09/15 08:19:34;;;;;;;6.25;1.00;;;15.60;99.90;;;;;;5072315;28;20041;-82
2022/09/15 08:22:00;;;;;;;3.30;0.50;;;15.70;99.90;;;;;;5072722;28;20072;-81
2022/09/15 08:24:27;;;;;;;2.65;0.32;;;15.60;99.90;;;;;;5073181;28;20079;-80
2022/09/15 08:26:53;;;;;;;4.07;0.50;;;15.60;99.90;;;;;;5073182;28;20111;-82
2022/09/15 08:29:19;;;;;;;3.13;0.40;;;15.70;99.90;;;;;;5080629;28;20040;-83
2022/09/15 08:31:46;;;;;;;2.25;0.40;;;16.00;99.90;;;;;;5073115;28;20088;-81
2022/09/15 08:34:13;;;;;;;2.70;0.40;;;16.00;99.90;;;;;;5071884;28;20048;-81
2022/09/15 08:36:39;;;;;;;1.45;0.30;;;15.80;99.90;;;;;;5072040;28;20047;-81
2022/09/15 08:39:05;;;;;;;2.55;0.50;;;15.90;99.90;;;;;;5072162;28;20370;-81
2022/09/15 08:41:37;;;;;;;3.25;0.50;;;16.00;99.90;;;;;;5071863;28;20048;-82
2022/09/15 08:44:27;;;;;;;2.08;0.40;;;16.10;99.90;;;;;;5052496;28;20055;-81
2022/09/15 08:47:05;;;;;;;3.97;0.40;;;16.10;99.90;;;;;;5071768;28;20052;-81
2022/09/15 08:49:48;;;;;;;4.20;0.50;;;16.20;99.90;;;;;;5069878;28;20408;-78
2022/09/15 08:52:32;;;;;;;5.60;0.80;;;16.10;99.90;;;;;;5071252;28;20072;-75
2022/09/15 08:55:08;;;;;;;4.70;0.70;;;15.90;99.90;;;;;;5070539;28;20048;-77
2022/09/15 08:57:34;;;;;;;4.28;0.70;;;15.80;99.90;;;;;;5054378;28;20052;-76
2022/09/15 09:00:00;;;;;;;3.15;0.70;;;15.50;99.90;;;;;;5070286;28;20129;-76
2022/09/15 09:02:33;;;;;;;3.20;0.65;;;15.30;99.90;;;;;;5070972;28;20139;-78
2022/09/15 09:10:32;;;;;;;5.00;0.60;;;15.20;99.90;;;;;;4969815;28;20242;-68
2022/09/15 09:13:04;;;;;;;3.90;0.63;;;15.30;99.90;;;;;;4990096;28;20515;-68
2022/09/15 09:15:52;;;;;;;3.95;0.52;;;15.00;99.90;;;;;;4984076;28;20531;-67
2022/09/15 09:18:37;;;;;;;2.35;0.73;;;15.00;99.90;;;;;;4971284;28;20609;-68
2022/09/15 09:21:12;;;;;;;4.68;0.90;;;15.10;99.90;;;;;;4971381;28;20093;-68
2022/09/15 09:24:08;;;;;;;2.22;0.80;;;15.00;99.90;;;;;;4972668;28;20781;-69
2022/09/15 09:26:35;;;;;;;2.40;0.60;;;14.90;99.90;;;;;;5002286;28;20445;-72
2022/09/15 09:29:10;;;;;;;3.03;0.63;;;14.90;99.90;;;;;;4969580;28;20109;-67
2022/09/15 09:31:36;;;;;;;3.35;0.50;;;15.10;99.90;;;;;;4971039;28;20050;-73
2022/09/15 09:34:21;;;;;;;1.92;0.60;;;15.00;99.90;;;;;;4975698;28;20402;-67
2022/09/15 09:36:57;;;;;;;2.33;0.90;;;15.10;99.90;;;;;;4971508;28;20050;-69
2022/09/15 09:39:24;;;;;;;3.83;1.10;;;15.10;99.90;;;;;;4967111;28;20058;-68
2022/09/15 09:41:50;;;;;;;12.95;1.02;;;15.10;99.90;;;;;;4969292;28;20046;-70
2022/09/15 09:44:18;;;;;;;1.70;0.65;;;15.30;99.90;;;;;;4973785;28;20149;-68
2022/09/15 09:46:45;;;;;;;3.33;0.60;;;15.10;99.90;;;;;;4971837;28;20042;-69
2022/09/15 09:49:22;;;;;;;6.07;0.70;;;15.30;99.90;;;;;;4991042;28;20082;-76
2022/09/15 09:51:54;;;;;;;3.33;0.75;;;15.30;99.90;;;;;;4989587;28;20057;-68
2022/09/15 09:54:23;;;;;;;4.40;0.85;;;15.50;99.90;;;;;;4991120;28;20418;-68
2022/09/15 09:56:51;;;;;;;2.63;0.82;;;15.50;99.90;;;;;;4984173;28;20800;-68
2022/09/15 09:59:44;;;;;;;7.35;1.15;;;15.70;99.90;;;;;;4993944;28;20437;-68
2022/09/15 10:02:10;;;;;;;3.58;0.75;;;15.60;99.90;;;;;;4991399;28;20046;-69
2022/09/15 10:04:37;;;;;;;3.33;1.40;;;15.70;99.90;;;;;;4988756;28;20116;-68
2022/09/15 10:07:04;;;;;;;2.72;0.47;;;15.80;99.90;;;;;;4992956;28;20828;-69
2022/09/15 10:09:30;;;;;;;5.45;0.75;;;15.80;99.90;;;;;;4989046;28;20069;-68
2022/09/15 10:11:59;;;;;;;2.15;0.57;;;15.80;99.90;;;;;;4985415;28;20377;-70
2022/09/15 10:14:28;;;;;;;3.58;0.52;;;15.70;99.90;;;;;;4970056;28;20058;-69
2022/09/15 10:17:11;;;;;;;2.42;0.50;;;15.70;99.90;;;;;;4970677;28;20042;-69
2022/09/15 10:19:46;;;;;;;2.63;0.40;;;15.60;99.90;;;;;;4970516;28;20051;-70
2022/09/15 10:22:24;;;;;;;5.13;0.70;;;15.50;99.90;;;;;;4970105;28;20043;-68
2022/09/15 10:24:50;;;;;;;2.97;0.47;;;15.50;99.90;;;;;;4969614;28;20043;-69
2022/09/15 10:27:26;;;;;;;2.22;0.60;;;15.50;99.90;;;;;;4966385;28;20182;-71
2022/09/15 10:29:52;;;;;;;1.63;0.55;;;15.70;99.90;;;;;;4968764;28;20101;-68
2022/09/15 10:32:24;;;;;;;2.22;0.50;;;15.50;99.90;;;;;;4966245;28;20046;-71
2022/09/15 10:35:13;;;;;;;1.23;0.50;;;15.50;99.90;;;;;;4970006;28;20051;-67
2022/09/15 10:38:03;;;;;;;2.40;0.90;;;15.70;99.90;;;;;;4974835;28;20089;-68
2022/09/15 10:40:47;;;;;;;2.30;0.35;;;15.40;99.90;;;;;;4975264;28;20055;-68
2022/09/15 10:43:44;;;;;;;3.70;0.70;;;15.60;99.90;;;;;;4976084;28;20545;-68
2022/09/15 10:46:24;;;;;;;3.55;0.70;;;15.60;99.90;;;;;;4958573;28;20524;-68
2022/09/15 10:49:13;;;;;;;3.28;0.57;;;15.70;99.90;;;;;;4975081;28;20053;-68
2022/09/15 10:51:53;;;;;;;4.40;0.60;;;15.70;99.90;;;;;;4976196;28;20093;-69
2022/09/15 10:54:28;;;;;;;3.67;0.50;;;15.60;99.90;;;;;;4974889;28;20047;-68
2022/09/15 10:57:15;;;;;;;2.65;0.57;;;15.60;99.90;;;;;;4976053;28;20043;-68
2022/09/15 11:00:08;;;;;;;3.15;0.50;;;15.60;99.90;;;;;;4975206;28;20057;-68
2022/09/15 11:02:39;;;;;;;4.63;0.60;;;15.30;99.90;;;;;;4974543;28;20065;-70
2022/09/15 11:05:36;;;;;;;2.42;0.50;;;15.30;99.90;;;;;;4975559;28;20057;-67
2022/09/15 11:08:22;;;;;;;4.60;0.60;;;15.00;99.90;;;;;;4974554;28;20047;-68
2022/09/15 11:10:52;;;;;;;3.17;0.70;;;15.00;99.90;;;;;;4975535;28;20059;-68
2022/09/15 11:13:27;;;;;;;3.50;0.50;;;15.00;99.90;;;;;;4975488;28;20043;-70
2022/09/15 11:16:25;;;;;;;2.85;0.57;;;14.70;99.90;;;;;;4974532;28;20414;-68
2022/09/15 11:19:06;;;;;;;3.25;0.73;;;14.70;99.90;;;;;;4973394;28;20073;-68
2022/09/15 11:21:38;;;;;;;3.22;0.70;;;14.60;99.90;;;;;;4975375;28;20042;-67
2022/09/15 11:24:24;;;;;;;2.42;0.50;;;14.70;99.90;;;;;;4975485;28;20486;-67
2022/09/15 11:27:04;;;;;;;4.50;0.40;;;14.50;99.90;;;;;;4974456;28;20050;-67
2022/09/15 11:29:38;;;;;;;4.13;1.55;;;14.60;99.90;;;;;;4975698;28;20050;-67
2022/09/15 11:32:23;;;;;;;2.97;0.70;;;14.70;99.90;;;;;;4975417;28;20071;-68
2022/09/15 11:34:58;;;;;;;2.83;0.43;;;14.70;99.90;;;;;;4975130;28;20047;-68
2022/09/15 11:37:30;;;;;;;2.47;0.50;;;14.80;99.90;;;;;;4975193;28;20494;-67
2022/09/15 11:40:17;;;;;;;1.10;0.40;;;14.80;99.90;;;;;;4974523;28;20050;-69
2022/09/15 11:42:43;;;;;;;2.65;0.50;;;14.70;99.90;;;;;;4974032;28;20058;-67
2022/09/15 11:45:26;;;;;;;4.72;0.50;;;15.00;99.90;;;;;;4974180;28;20255;-68
2022/09/15 11:47:58;;;;;;;2.60;0.40;;;15.20;99.90;;;;;;4974241;28;20414;-69
2022/09/15 11:50:32;;;;;;;2.03;0.40;;;15.30;99.90;;;;;;4973885;28;20114;-69
2022/09/15 11:53:01;;;;;;;2.20;0.40;;;15.40;99.90;;;;;;4975153;28;20134;-69
2022/09/15 11:55:59;;;;;;;2.08;0.40;;;15.30;99.90;;;;;;4973646;28;20054;-68
2022/09/15 11:58:39;;;;;;;3.17;0.30;;;15.70;99.90;;;;;;4974049;28;20153;-68
2022/09/15 12:01:07;;;;;;;3.10;0.50;;;15.80;99.90;;;;;;4974690;28;20130;-68
2022/09/15 12:03:39;;;;;;;3.35;0.45;;;16.00;99.90;;;;;;4973929;28;20105;-69
2022/09/15 12:06:11;;;;;;;3.67;0.40;;;16.00;99.90;;;;;;4973810;28;20125;-68
2022/09/15 12:08:50;;;;;;;1.10;0.40;;;16.00;99.90;;;;;;4973616;28;20366;-68
2022/09/15 12:11:21;;;;;;;3.15;0.38;;;16.10;99.90;;;;;;4973439;28;20066;-70
2022/09/15 12:13:47;;;;;;;2.63;0.60;;;16.00;99.90;;;;;;4975172;28;20477;-69
2022/09/15 12:16:14;;;;;;;4.65;0.40;;;16.20;99.90;;;;;;4974651;28;20125;-68
2022/09/15 12:18:55;;;;;;;3.78;0.60;;;16.10;99.90;;;;;;4989695;28;20057;-69
2022/09/15 12:21:48;;;;;;;4.53;0.60;;;16.30;99.90;;;;;;4973644;28;20059;-68
2022/09/15 12:24:37;;;;;;;4.20;0.45;;;16.80;99.90;;;;;;4974391;28;20593;-69
2022/09/15 12:27:03;;;;;;;0.95;0.30;;;16.70;99.90;;;;;;4974699;28;20113;-69
2022/09/15 12:29:38;;;;;;;2.78;0.30;;;16.60;99.90;;;;;;4974940;28;20043;-69
2022/09/15 12:32:28;;;;;;;3.40;0.50;;;16.80;99.90;;;;;;4977414;28;20050;-69
2022/09/15 12:35:14;;;;;;;4.85;0.60;;;16.50;99.90;;;;;;4978022;28;20430;-69
2022/09/15 12:37:54;;;;;;;2.35;0.40;;;16.50;99.90;;;;;;4977808;28;20046;-70
2022/09/15 12:40:31;;;;;;;0.93;0.30;;;16.60;99.90;;;;;;4977556;28;20051;-69
2022/09/15 12:42:58;;;;;;;1.38;0.32;;;16.50;99.90;;;;;;4977321;28;20147;-70
2022/09/15 12:45:31;;;;;;;2.67;0.40;;;16.50;99.90;;;;;;4961631;28;20051;-69
2022/09/15 12:48:02;;;;;;;2.45;0.50;;;16.50;99.90;;;;;;4978284;28;20112;-69
2022/09/15 12:50:35;;;;;;;3.22;0.57;;;16.40;99.90;;;;;;4977498;28;20058;-69
2022/09/15 12:53:21;;;;;;;3.28;0.45;;;16.50;99.90;;;;;;4977975;28;20482;-70
2022/09/15 12:55:51;;;;;;;2.78;0.40;;;16.50;99.90;;;;;;4977195;28;20406;-69
2022/09/15 12:58:21;;;;;;;2.95;0.40;;;16.40;99.90;;;;;;4978193;28;20047;-69
2022/09/15 13:00:47;;;;;;;2.40;0.50;;;16.10;99.90;;;;;;4978066;28;20046;-69
2022/09/15 13:03:54;;;;;;;3.30;0.63;;;16.10;99.90;;;;;;4977993;28;20038;-69
2022/09/15 13:06:20;;;;;;;3.78;0.45;;;16.20;99.90;;;;;;4977500;28;20043;-69
2022/09/15 13:09:26;;;;;;;3.50;0.50;;;16.50;99.90;;;;;;4976893;28;20063;-69
2022/09/15 13:11:54;;;;;;;4.82;0.57;;;16.30;99.90;;;;;;4975275;28;20141;-69
2022/09/15 13:14:24;;;;;;;3.25;0.68;;;;;;;;;;4976773;28;20057;-69
2022/09/15 13:17:15;;;;;;;3.88;0.50;;;15.50;99.90;;;;;;4993017;28;20133;-69